sensor_id;sensor_type;location;lat;lon;timestamp;temperature;humidity
32334;DHT22;18810;53.040;8.850;2023-11-19T00:00:42;7.00;99.90
32334;DHT22;18810;53.040;8.850;2023-11-19T00:03:08;7.00;99.90
32334;DHT22;18810;53.040;8.850;2023-11-19T00:05:34;7.00;99.90
32334;DHT22;18810;53.040;8.850;2023-11-19T00:07:59;7.00;99.90
32334;DHT22;18810;53.040;8.850;2023-11-19T00:10:25;7.00;99.90
32334;DHT22;18810;53.040;8.850;2023-11-19T00:12:51;7.10;99.90
32334;DHT22;18810;53.040;8.850;2023-11-19T00:15:17;7.20;99.90
32334;DHT22;18810;53.040;8.850;2023-11-19T00:17:47;7.10;99.90
32334;DHT22;18810;53.040;8.850;2023-11-19T00:20:14;7.10;99.90
32334;DHT22;18810;53.040;8.850;2023-11-19T00:22:41;7.10;99.90
32334;DHT22;18810;53.040;8.850;2023-11-19T00:25:08;7.20;99.90
32334;DHT22;18810;53.040;8.850;2023-11-19T00:27:34;7.20;99.90
32334;DHT22;18810;53.040;8.850;2023-11-19T00:29:59;7.10;99.90
32334;DHT22;18810;53.040;8.850;2023-11-19T00:32:25;7.20;99.90
32334;DHT22;18810;53.040;8.850;2023-11-19T00:34:54;7.20;99.90
32334;DHT22;18810;53.040;8.850;2023-11-19T00:37:20;7.30;99.90
32334;DHT22;18810;53.040;8.850;2023-11-19T00:39:45;7.30;99.90
32334;DHT22;18810;53.040;8.850;2023-11-19T00:42:11;7.50;99.90
32334;DHT22;18810;53.040;8.850;2023-11-19T00:44:37;7.30;99.90
32334;DHT22;18810;53.040;8.850;2023-11-19T00:47:03;7.40;99.90
32334;DHT22;18810;53.040;8.850;2023-11-19T00:49:31;7.40;99.90
32334;DHT22;18810;53.040;8.850;2023-11-19T00:51:58;7.50;99.90
32334;DHT22;18810;53.040;8.850;2023-11-19T00:54:24;7.50;99.90
32334;DHT22;18810;53.040;8.850;2023-11-19T00:56:54;7.50;99.90
32334;DHT22;18810;53.040;8.850;2023-11-19T00:59:20;7.50;99.90
32334;DHT22;18810;53.040;8.850;2023-11-19T01:01:46;7.50;99.90
32334;DHT22;18810;53.040;8.850;2023-11-19T01:04:16;7.60;99.90
32334;DHT22;18810;53.040;8.850;2023-11-19T01:06:42;7.60;99.90
32334;DHT22;18810;53.040;8.850;2023-11-19T01:09:08;7.50;99.90
32334;DHT22;18810;53.040;8.850;2023-11-19T01:11:35;7.60;99.90
32334;DHT22;18810;53.040;8.850;2023-11-19T01:14:00;7.70;99.90
32334;DHT22;18810;53.040;8.850;2023-11-19T01:16:26;7.80;99.90
32334;DHT22;18810;53.040;8.850;2023-11-19T01:18:52;7.70;99.90
32334;DHT22;18810;53.040;8.850;2023-11-19T01:21:18;7.80;99.90
32334;DHT22;18810;53.040;8.850;2023-11-19T01:23:44;7.70;99.90
32334;DHT22;18810;53.040;8.850;2023-11-19T01:26:14;7.70;99.90
32334;DHT22;18810;53.040;8.850;2023-11-19T01:28:40;7.80;99.90
32334;DHT22;18810;53.040;8.850;2023-11-19T01:31:14;7.80;99.90
32334;DHT22;18810;53.040;8.850;2023-11-19T01:33:40;7.90;99.90
32334;DHT22;18810;53.040;8.850;2023-11-19T01:36:07;7.90;99.90
32334;DHT22;18810;53.040;8.850;2023-11-19T01:38:34;7.90;99.90
32334;DHT22;18810;53.040;8.850;2023-11-19T01:41:00;7.90;99.90
32334;DHT22;18810;53.040;8.850;2023-11-19T01:43:37;8.00;99.90
32334;DHT22;18810;53.040;8.850;2023-11-19T01:46:05;8.10;99.90
32334;DHT22;18810;53.040;8.850;2023-11-19T01:48:36;8.10;99.90
32334;DHT22;18810;53.040;8.850;2023-11-19T01:51:07;8.20;99.90
32334;DHT22;18810;53.040;8.850;2023-11-19T01:53:34;8.10;99.90
32334;DHT22;18810;53.040;8.850;2023-11-19T01:56:01;8.10;99.90
32334;DHT22;18810;53.040;8.850;2023-11-19T01:58:27;8.20;99.90
32334;DHT22;18810;53.040;8.850;2023-11-19T02:00:56;8.20;99.90
32334;DHT22;18810;53.040;8.850;2023-11-19T02:03:22;8.30;99.90
32334;DHT22;18810;53.040;8.850;2023-11-19T02:05:48;8.40;99.90
32334;DHT22;18810;53.040;8.850;2023-11-19T02:08:15;8.40;99.90
32334;DHT22;18810;53.040;8.850;2023-11-19T02:10:40;8.40;99.90
32334;DHT22;18810;53.040;8.850;2023-11-19T02:13:06;8.50;99.90
32334;DHT22;18810;53.040;8.850;2023-11-19T02:15:33;8.70;99.90
32334;DHT22;18810;53.040;8.850;2023-11-19T02:18:27;8.70;99.90
32334;DHT22;18810;53.040;8.850;2023-11-19T02:20:59;8.70;99.90
32334;DHT22;18810;53.040;8.850;2023-11-19T02:23:28;8.80;99.90
32334;DHT22;18810;53.040;8.850;2023-11-19T02:28:39;9.10;99.90
32334;DHT22;18810;53.040;8.850;2023-11-19T02:31:05;9.30;99.90
32334;DHT22;18810;53.040;8.850;2023-11-19T02:33:35;9.40;99.90
32334;DHT22;18810;53.040;8.850;2023-11-19T02:36:02;9.40;99.90
32334;DHT22;18810;53.040;8.850;2023-11-19T02:38:29;9.60;99.90
32334;DHT22;18810;53.040;8.850;2023-11-19T02:40:56;9.60;99.90
32334;DHT22;18810;53.040;8.850;2023-11-19T02:43:22;9.70;99.90
32334;DHT22;18810;53.040;8.850;2023-11-19T02:45:48;9.70;99.90
32334;DHT22;18810;53.040;8.850;2023-11-19T02:48:14;9.70;99.90
32334;DHT22;18810;53.040;8.850;2023-11-19T02:50:42;9.90;99.90
32334;DHT22;18810;53.040;8.850;2023-11-19T02:53:07;9.90;99.90
32334;DHT22;18810;53.040;8.850;2023-11-19T02:55:33;10.00;99.90
32334;DHT22;18810;53.040;8.850;2023-11-19T02:58:04;10.10;99.90
32334;DHT22;18810;53.040;8.850;2023-11-19T03:00:45;10.20;99.90
32334;DHT22;18810;53.040;8.850;2023-11-19T03:03:17;10.20;99.90
32334;DHT22;18810;53.040;8.850;2023-11-19T03:05:46;10.30;99.90
32334;DHT22;18810;53.040;8.850;2023-11-19T03:08:12;10.30;99.90
32334;DHT22;18810;53.040;8.850;2023-11-19T03:10:38;10.40;99.90
32334;DHT22;18810;53.040;8.850;2023-11-19T03:13:04;10.40;99.90
32334;DHT22;18810;53.040;8.850;2023-11-19T03:15:30;10.30;99.90
32334;DHT22;18810;53.040;8.850;2023-11-19T03:17:55;10.40;99.90
32334;DHT22;18810;53.040;8.850;2023-11-19T03:20:21;10.50;99.90
32334;DHT22;18810;53.040;8.850;2023-11-19T03:22:49;10.50;99.90
32334;DHT22;18810;53.040;8.850;2023-11-19T03:25:16;10.60;99.90
32334;DHT22;18810;53.040;8.850;2023-11-19T03:27:41;10.60;99.90
32334;DHT22;18810;53.040;8.850;2023-11-19T03:30:08;10.60;99.90
32334;DHT22;18810;53.040;8.850;2023-11-19T03:32:37;10.60;99.90
32334;DHT22;18810;53.040;8.850;2023-11-19T03:35:04;10.70;99.90
32334;DHT22;18810;53.040;8.850;2023-11-19T03:37:32;10.70;99.90
32334;DHT22;18810;53.040;8.850;2023-11-19T03:39:58;10.70;99.90
32334;DHT22;18810;53.040;8.850;2023-11-19T03:42:29;10.70;99.90
32334;DHT22;18810;53.040;8.850;2023-11-19T03:44:56;10.70;99.90
32334;DHT22;18810;53.040;8.850;2023-11-19T03:47:22;10.70;99.90
32334;DHT22;18810;53.040;8.850;2023-11-19T03:49:49;10.80;99.90
32334;DHT22;18810;53.040;8.850;2023-11-19T03:52:15;10.80;99.90
32334;DHT22;18810;53.040;8.850;2023-11-19T03:54:41;10.80;99.90
32334;DHT22;18810;53.040;8.850;2023-11-19T03:57:07;10.90;99.90
32334;DHT22;18810;53.040;8.850;2023-11-19T03:59:32;10.90;99.90
32334;DHT22;18810;53.040;8.850;2023-11-19T04:01:59;10.90;99.90
32334;DHT22;18810;53.040;8.850;2023-11-19T04:04:26;11.00;99.90
32334;DHT22;18810;53.040;8.850;2023-11-19T04:06:53;11.00;99.90
32334;DHT22;18810;53.040;8.850;2023-11-19T04:09:19;11.00;99.90
32334;DHT22;18810;53.040;8.850;2023-11-19T04:11:45;11.00;99.90
32334;DHT22;18810;53.040;8.850;2023-11-19T04:14:12;11.10;99.90
32334;DHT22;18810;53.040;8.850;2023-11-19T04:16:39;11.10;99.90
32334;DHT22;18810;53.040;8.850;2023-11-19T04:19:05;11.10;99.90
32334;DHT22;18810;53.040;8.850;2023-11-19T04:21:30;11.10;99.90
32334;DHT22;18810;53.040;8.850;2023-11-19T04:23:56;11.10;99.90
32334;DHT22;18810;53.040;8.850;2023-11-19T04:26:22;11.10;99.90
32334;DHT22;18810;53.040;8.850;2023-11-19T04:28:48;11.10;99.90
32334;DHT22;18810;53.040;8.850;2023-11-19T04:31:15;11.10;99.90
32334;DHT22;18810;53.040;8.850;2023-11-19T04:33:44;11.20;99.90
32334;DHT22;18810;53.040;8.850;2023-11-19T04:36:10;11.20;99.90
32334;DHT22;18810;53.040;8.850;2023-11-19T04:38:37;11.20;99.90
32334;DHT22;18810;53.040;8.850;2023-11-19T04:41:05;11.30;99.90
32334;DHT22;18810;53.040;8.850;2023-11-19T04:43:31;11.20;99.90
32334;DHT22;18810;53.040;8.850;2023-11-19T04:45:57;11.20;99.90
32334;DHT22;18810;53.040;8.850;2023-11-19T04:48:23;11.30;99.90
32334;DHT22;18810;53.040;8.850;2023-11-19T04:50:49;11.30;99.90
32334;DHT22;18810;53.040;8.850;2023-11-19T04:53:16;11.40;99.90
32334;DHT22;18810;53.040;8.850;2023-11-19T04:55:42;11.30;99.90
32334;DHT22;18810;53.040;8.850;2023-11-19T04:58:08;11.40;99.90
32334;DHT22;18810;53.040;8.850;2023-11-19T05:00:34;11.40;99.90
32334;DHT22;18810;53.040;8.850;2023-11-19T05:05:27;11.40;99.90
32334;DHT22;18810;53.040;8.850;2023-11-19T05:07:52;11.50;99.90
32334;DHT22;18810;53.040;8.850;2023-11-19T05:10:18;11.50;99.90
32334;DHT22;18810;53.040;8.850;2023-11-19T05:12:44;11.50;99.90
32334;DHT22;18810;53.040;8.850;2023-11-19T05:15:10;11.50;99.90
32334;DHT22;18810;53.040;8.850;2023-11-19T05:17:37;11.50;99.90
32334;DHT22;18810;53.040;8.850;2023-11-19T05:20:03;11.50;99.90
32334;DHT22;18810;53.040;8.850;2023-11-19T05:22:29;11.50;99.90
32334;DHT22;18810;53.040;8.850;2023-11-19T05:24:55;11.50;99.90
32334;DHT22;18810;53.040;8.850;2023-11-19T05:27:21;11.50;99.90
32334;DHT22;18810;53.040;8.850;2023-11-19T05:29:49;11.50;99.90
32334;DHT22;18810;53.040;8.850;2023-11-19T05:32:14;11.60;99.90
32334;DHT22;18810;53.040;8.850;2023-11-19T05:34:40;11.40;99.90
32334;DHT22;18810;53.040;8.850;2023-11-19T05:37:07;11.60;99.90
32334;DHT22;18810;53.040;8.850;2023-11-19T05:39:33;11.60;99.90
32334;DHT22;18810;53.040;8.850;2023-11-19T05:41:58;11.60;99.90
32334;DHT22;18810;53.040;8.850;2023-11-19T05:44:24;11.50;99.90
32334;DHT22;18810;53.040;8.850;2023-11-19T05:46:50;11.50;99.90
32334;DHT22;18810;53.040;8.850;2023-11-19T05:49:15;11.50;99.90
32334;DHT22;18810;53.040;8.850;2023-11-19T05:51:41;11.60;99.90
32334;DHT22;18810;53.040;8.850;2023-11-19T05:54:10;11.60;99.90
32334;DHT22;18810;53.040;8.850;2023-11-19T05:56:36;11.60;99.90
32334;DHT22;18810;53.040;8.850;2023-11-19T05:59:02;11.60;99.90
32334;DHT22;18810;53.040;8.850;2023-11-19T06:01:40;11.60;99.90
32334;DHT22;18810;53.040;8.850;2023-11-19T06:04:07;11.60;99.90
32334;DHT22;18810;53.040;8.850;2023-11-19T06:06:33;11.70;99.90
32334;DHT22;18810;53.040;8.850;2023-11-19T06:08:58;11.60;99.90
32334;DHT22;18810;53.040;8.850;2023-11-19T06:11:24;11.60;99.90
32334;DHT22;18810;53.040;8.850;2023-11-19T06:13:52;11.70;99.90
32334;DHT22;18810;53.040;8.850;2023-11-19T06:16:18;11.70;99.90
32334;DHT22;18810;53.040;8.850;2023-11-19T06:18:44;11.70;99.90
32334;DHT22;18810;53.040;8.850;2023-11-19T06:21:10;11.70;99.90
32334;DHT22;18810;53.040;8.850;2023-11-19T06:23:36;11.70;99.90
32334;DHT22;18810;53.040;8.850;2023-11-19T06:26:02;11.70;99.90
32334;DHT22;18810;53.040;8.850;2023-11-19T06:28:28;11.70;99.90
32334;DHT22;18810;53.040;8.850;2023-11-19T06:30:54;11.80;99.90
32334;DHT22;18810;53.040;8.850;2023-11-19T06:33:20;11.70;99.90
32334;DHT22;18810;53.040;8.850;2023-11-19T06:35:45;11.80;99.90
32334;DHT22;18810;53.040;8.850;2023-11-19T06:38:11;11.80;99.90
32334;DHT22;18810;53.040;8.850;2023-11-19T06:40:37;11.90;99.90
32334;DHT22;18810;53.040;8.850;2023-11-19T06:43:03;11.80;99.90
32334;DHT22;18810;53.040;8.850;2023-11-19T06:45:29;11.70;99.90
32334;DHT22;18810;53.040;8.850;2023-11-19T06:47:55;11.70;99.90
32334;DHT22;18810;53.040;8.850;2023-11-19T06:50:21;11.70;99.90
32334;DHT22;18810;53.040;8.850;2023-11-19T06:52:47;11.70;99.90
32334;DHT22;18810;53.040;8.850;2023-11-19T06:55:12;11.70;99.90
32334;DHT22;18810;53.040;8.850;2023-11-19T06:57:38;11.60;99.90
32334;DHT22;18810;53.040;8.850;2023-11-19T07:00:05;11.70;99.90
32334;DHT22;18810;53.040;8.850;2023-11-19T07:02:32;11.60;99.90
32334;DHT22;18810;53.040;8.850;2023-11-19T07:04:57;11.60;99.90
32334;DHT22;18810;53.040;8.850;2023-11-19T07:07:23;11.60;99.90
32334;DHT22;18810;53.040;8.850;2023-11-19T07:09:49;11.70;99.90
32334;DHT22;18810;53.040;8.850;2023-11-19T07:12:15;11.40;99.90
32334;DHT22;18810;53.040;8.850;2023-11-19T07:14:41;11.60;99.90
32334;DHT22;18810;53.040;8.850;2023-11-19T07:17:07;11.60;99.90
32334;DHT22;18810;53.040;8.850;2023-11-19T07:19:34;11.70;99.90
32334;DHT22;18810;53.040;8.850;2023-11-19T07:22:02;11.70;99.90
32334;DHT22;18810;53.040;8.850;2023-11-19T07:24:27;11.70;99.90
32334;DHT22;18810;53.040;8.850;2023-11-19T07:26:54;11.60;99.90
32334;DHT22;18810;53.040;8.850;2023-11-19T07:29:20;11.60;99.90
32334;DHT22;18810;53.040;8.850;2023-11-19T07:31:48;11.50;99.90
32334;DHT22;18810;53.040;8.850;2023-11-19T07:34:14;11.50;99.90
32334;DHT22;18810;53.040;8.850;2023-11-19T07:36:40;11.50;99.90
32334;DHT22;18810;53.040;8.850;2023-11-19T07:39:06;11.50;99.90
32334;DHT22;18810;53.040;8.850;2023-11-19T07:41:32;11.40;99.90
32334;DHT22;18810;53.040;8.850;2023-11-19T07:43:58;11.40;99.90
32334;DHT22;18810;53.040;8.850;2023-11-19T07:46:24;11.40;99.90
32334;DHT22;18810;53.040;8.850;2023-11-19T07:48:50;11.30;99.90
32334;DHT22;18810;53.040;8.850;2023-11-19T07:51:16;11.30;99.90
32334;DHT22;18810;53.040;8.850;2023-11-19T07:53:42;11.30;99.90
32334;DHT22;18810;53.040;8.850;2023-11-19T07:56:08;11.40;99.90
32334;DHT22;18810;53.040;8.850;2023-11-19T07:58:34;11.40;99.90
32334;DHT22;18810;53.040;8.850;2023-11-19T08:01:00;11.50;99.90
32334;DHT22;18810;53.040;8.850;2023-11-19T08:03:27;11.50;99.90
32334;DHT22;18810;53.040;8.850;2023-11-19T08:05:55;11.50;99.90
32334;DHT22;18810;53.040;8.850;2023-11-19T08:08:22;11.50;99.90
32334;DHT22;18810;53.040;8.850;2023-11-19T08:10:48;11.50;99.90
32334;DHT22;18810;53.040;8.850;2023-11-19T08:13:14;11.40;99.90
32334;DHT22;18810;53.040;8.850;2023-11-19T08:15:40;11.40;99.90
32334;DHT22;18810;53.040;8.850;2023-11-19T08:18:06;11.50;99.90
32334;DHT22;18810;53.040;8.850;2023-11-19T08:20:33;11.50;99.90
32334;DHT22;18810;53.040;8.850;2023-11-19T08:22:59;11.40;99.90
32334;DHT22;18810;53.040;8.850;2023-11-19T08:25:24;11.40;99.90
32334;DHT22;18810;53.040;8.850;2023-11-19T08:27:50;11.40;99.90
32334;DHT22;18810;53.040;8.850;2023-11-19T08:30:16;11.40;99.90
32334;DHT22;18810;53.040;8.850;2023-11-19T08:32:41;11.40;99.90
32334;DHT22;18810;53.040;8.850;2023-11-19T08:35:07;11.40;99.90
32334;DHT22;18810;53.040;8.850;2023-11-19T08:37:34;11.40;99.90
32334;DHT22;18810;53.040;8.850;2023-11-19T08:40:02;11.40;99.90
32334;DHT22;18810;53.040;8.850;2023-11-19T08:42:32;11.40;99.90
32334;DHT22;18810;53.040;8.850;2023-11-19T08:44:58;11.40;99.90
32334;DHT22;18810;53.040;8.850;2023-11-19T08:47:24;11.50;99.90
32334;DHT22;18810;53.040;8.850;2023-11-19T08:49:52;11.60;99.90
32334;DHT22;18810;53.040;8.850;2023-11-19T08:52:19;11.70;99.90
32334;DHT22;18810;53.040;8.850;2023-11-19T08:54:44;11.70;99.90
32334;DHT22;18810;53.040;8.850;2023-11-19T08:57:10;11.90;99.90
32334;DHT22;18810;53.040;8.850;2023-11-19T08:59:36;12.00;99.90
32334;DHT22;18810;53.040;8.850;2023-11-19T09:02:05;12.20;99.90
32334;DHT22;18810;53.040;8.850;2023-11-19T09:04:32;12.30;99.90
32334;DHT22;18810;53.040;8.850;2023-11-19T09:06:58;12.50;99.90
32334;DHT22;18810;53.040;8.850;2023-11-19T09:09:23;12.40;99.90
32334;DHT22;18810;53.040;8.850;2023-11-19T09:11:49;12.50;99.90
32334;DHT22;18810;53.040;8.850;2023-11-19T09:14:15;12.40;99.90
32334;DHT22;18810;53.040;8.850;2023-11-19T09:16:41;12.50;99.90
32334;DHT22;18810;53.040;8.850;2023-11-19T09:19:06;12.50;99.90
32334;DHT22;18810;53.040;8.850;2023-11-19T09:21:32;12.50;99.90
32334;DHT22;18810;53.040;8.850;2023-11-19T09:24:00;12.50;99.90
32334;DHT22;18810;53.040;8.850;2023-11-19T09:26:25;12.50;99.90
32334;DHT22;18810;53.040;8.850;2023-11-19T09:28:51;12.50;99.90
32334;DHT22;18810;53.040;8.850;2023-11-19T09:31:18;12.50;99.90
32334;DHT22;18810;53.040;8.850;2023-11-19T09:33:44;12.30;99.90
32334;DHT22;18810;53.040;8.850;2023-11-19T09:36:14;12.20;99.90
32334;DHT22;18810;53.040;8.850;2023-11-19T09:38:43;12.10;99.90
32334;DHT22;18810;53.040;8.850;2023-11-19T09:41:10;12.00;99.90
32334;DHT22;18810;53.040;8.850;2023-11-19T09:43:39;11.80;99.90
32334;DHT22;18810;53.040;8.850;2023-11-19T09:46:06;11.80;99.90
32334;DHT22;18810;53.040;8.850;2023-11-19T09:48:35;11.80;99.90
32334;DHT22;18810;53.040;8.850;2023-11-19T09:51:03;11.70;99.90
32334;DHT22;18810;53.040;8.850;2023-11-19T09:53:30;11.70;99.90
32334;DHT22;18810;53.040;8.850;2023-11-19T09:55:57;11.70;99.90
32334;DHT22;18810;53.040;8.850;2023-11-19T09:58:24;11.80;99.90
32334;DHT22;18810;53.040;8.850;2023-11-19T10:00:50;11.80;99.90
32334;DHT22;18810;53.040;8.850;2023-11-19T10:03:17;11.70;99.90
32334;DHT22;18810;53.040;8.850;2023-11-19T10:05:43;11.60;99.90
32334;DHT22;18810;53.040;8.850;2023-11-19T10:08:09;11.70;99.90
32334;DHT22;18810;53.040;8.850;2023-11-19T10:10:37;11.70;99.90
32334;DHT22;18810;53.040;8.850;2023-11-19T10:13:03;11.70;99.90
32334;DHT22;18810;53.040;8.850;2023-11-19T10:15:36;11.70;99.90
32334;DHT22;18810;53.040;8.850;2023-11-19T10:18:03;11.70;99.90
32334;DHT22;18810;53.040;8.850;2023-11-19T10:20:41;11.70;99.90
32334;DHT22;18810;53.040;8.850;2023-11-19T10:23:07;11.60;99.90
32334;DHT22;18810;53.040;8.850;2023-11-19T10:25:33;11.60;99.90
32334;DHT22;18810;53.040;8.850;2023-11-19T10:27:59;11.70;99.90
32334;DHT22;18810;53.040;8.850;2023-11-19T10:30:30;11.70;99.90
32334;DHT22;18810;53.040;8.850;2023-11-19T10:35:33;11.90;99.90
32334;DHT22;18810;53.040;8.850;2023-11-19T10:38:00;11.90;99.90
32334;DHT22;18810;53.040;8.850;2023-11-19T10:40:39;12.00;99.90
32334;DHT22;18810;53.040;8.850;2023-11-19T10:43:08;12.20;99.90
32334;DHT22;18810;53.040;8.850;2023-11-19T10:45:35;12.50;99.90
32334;DHT22;18810;53.040;8.850;2023-11-19T10:48:03;12.50;99.90
32334;DHT22;18810;53.040;8.850;2023-11-19T10:50:40;12.30;99.90
32334;DHT22;18810;53.040;8.850;2023-11-19T10:53:06;12.20;99.90
32334;DHT22;18810;53.040;8.850;2023-11-19T10:55:34;12.10;99.90
32334;DHT22;18810;53.040;8.850;2023-11-19T10:58:05;12.00;99.90
32334;DHT22;18810;53.040;8.850;2023-11-19T11:05:40;11.90;99.90
32334;DHT22;18810;53.040;8.850;2023-11-19T11:08:07;11.90;99.90
32334;DHT22;18810;53.040;8.850;2023-11-19T11:10:39;11.90;99.90
32334;DHT22;18810;53.040;8.850;2023-11-19T11:13:05;11.80;99.90
32334;DHT22;18810;53.040;8.850;2023-11-19T11:15:32;11.80;99.90
32334;DHT22;18810;53.040;8.850;2023-11-19T11:18:01;11.80;99.90
32334;DHT22;18810;53.040;8.850;2023-11-19T11:20:31;12.00;99.90
32334;DHT22;18810;53.040;8.850;2023-11-19T11:25:56;12.50;99.90
32334;DHT22;18810;53.040;8.850;2023-11-19T11:33:31;12.90;99.90
32334;DHT22;18810;53.040;8.850;2023-11-19T11:36:03;12.90;99.90
32334;DHT22;18810;53.040;8.850;2023-11-19T11:38:36;12.90;99.90
32334;DHT22;18810;53.040;8.850;2023-11-19T11:41:18;12.90;99.90
32334;DHT22;18810;53.040;8.850;2023-11-19T11:43:54;12.80;99.90
32334;DHT22;18810;53.040;8.850;2023-11-19T11:49:02;12.50;99.90
32334;DHT22;18810;53.040;8.850;2023-11-19T11:54:09;12.70;99.90
32334;DHT22;18810;53.040;8.850;2023-11-19T11:56:38;12.60;99.90
32334;DHT22;18810;53.040;8.850;2023-11-19T11:59:19;12.60;99.90
32334;DHT22;18810;53.040;8.850;2023-11-19T12:02:18;12.70;99.90
32334;DHT22;18810;53.040;8.850;2023-11-19T12:04:38;12.50;99.90
32334;DHT22;18810;53.040;8.850;2023-11-19T12:07:16;12.40;99.90
32334;DHT22;18810;53.040;8.850;2023-11-19T12:09:46;12.40;99.90
32334;DHT22;18810;53.040;8.850;2023-11-19T12:12:23;12.40;99.90
32334;DHT22;18810;53.040;8.850;2023-11-19T12:15:08;12.40;99.90
32334;DHT22;18810;53.040;8.850;2023-11-19T12:17:47;12.40;99.90
32334;DHT22;18810;53.040;8.850;2023-11-19T12:20:20;12.30;99.90
32334;DHT22;18810;53.040;8.850;2023-11-19T12:22:47;12.30;99.90
32334;DHT22;18810;53.040;8.850;2023-11-19T12:25:18;12.20;99.90
32334;DHT22;18810;53.040;8.850;2023-11-19T12:27:46;12.10;99.90
32334;DHT22;18810;53.040;8.850;2023-11-19T12:30:12;12.00;99.90
32334;DHT22;18810;53.040;8.850;2023-11-19T12:32:42;11.90;99.90
32334;DHT22;18810;53.040;8.850;2023-11-19T12:35:09;12.00;99.90
32334;DHT22;18810;53.040;8.850;2023-11-19T12:37:41;12.00;99.90
32334;DHT22;18810;53.040;8.850;2023-11-19T12:40:15;12.00;99.90
32334;DHT22;18810;53.040;8.850;2023-11-19T12:42:46;12.00;99.90
32334;DHT22;18810;53.040;8.850;2023-11-19T12:45:12;11.90;99.90
32334;DHT22;18810;53.040;8.850;2023-11-19T12:47:39;11.80;99.90
32334;DHT22;18810;53.040;8.850;2023-11-19T12:50:06;11.70;99.90
32334;DHT22;18810;53.040;8.850;2023-11-19T12:52:32;11.60;99.90
32334;DHT22;18810;53.040;8.850;2023-11-19T12:54:58;11.50;99.90
32334;DHT22;18810;53.040;8.850;2023-11-19T12:57:42;11.30;99.90
32334;DHT22;18810;53.040;8.850;2023-11-19T13:00:18;11.20;99.90
32334;DHT22;18810;53.040;8.850;2023-11-19T13:02:51;11.20;99.90
32334;DHT22;18810;53.040;8.850;2023-11-19T13:08:06;11.00;99.90
32334;DHT22;18810;53.040;8.850;2023-11-19T13:13:11;10.80;99.90
32334;DHT22;18810;53.040;8.850;2023-11-19T13:15:37;10.80;99.90
32334;DHT22;18810;53.040;8.850;2023-11-19T13:18:03;10.80;99.90
32334;DHT22;18810;53.040;8.850;2023-11-19T13:20:29;10.70;99.90
32334;DHT22;18810;53.040;8.850;2023-11-19T13:22:55;10.60;99.90
32334;DHT22;18810;53.040;8.850;2023-11-19T13:25:22;10.60;99.90
32334;DHT22;18810;53.040;8.850;2023-11-19T13:27:47;10.50;99.90
32334;DHT22;18810;53.040;8.850;2023-11-19T13:30:13;10.50;99.90
32334;DHT22;18810;53.040;8.850;2023-11-19T13:32:39;10.40;99.90
32334;DHT22;18810;53.040;8.850;2023-11-19T13:35:05;10.40;99.90
32334;DHT22;18810;53.040;8.850;2023-11-19T13:37:34;10.40;99.90
32334;DHT22;18810;53.040;8.850;2023-11-19T13:40:00;10.50;99.90
32334;DHT22;18810;53.040;8.850;2023-11-19T13:42:26;10.60;99.90
32334;DHT22;18810;53.040;8.850;2023-11-19T13:44:52;10.60;99.90
32334;DHT22;18810;53.040;8.850;2023-11-19T13:47:18;10.60;99.90
32334;DHT22;18810;53.040;8.850;2023-11-19T13:49:45;10.50;99.90
32334;DHT22;18810;53.040;8.850;2023-11-19T13:52:10;10.50;99.90
32334;DHT22;18810;53.040;8.850;2023-11-19T13:54:37;10.60;99.90
32334;DHT22;18810;53.040;8.850;2023-11-19T13:57:03;10.70;99.90
32334;DHT22;18810;53.040;8.850;2023-11-19T13:59:32;10.80;99.90
32334;DHT22;18810;53.040;8.850;2023-11-19T14:01:58;11.00;99.90
32334;DHT22;18810;53.040;8.850;2023-11-19T14:04:24;11.10;99.90
32334;DHT22;18810;53.040;8.850;2023-11-19T14:06:50;11.20;99.90
32334;DHT22;18810;53.040;8.850;2023-11-19T14:09:16;11.20;99.90
32334;DHT22;18810;53.040;8.850;2023-11-19T14:11:43;11.30;99.90
32334;DHT22;18810;53.040;8.850;2023-11-19T14:14:09;11.30;99.90
32334;DHT22;18810;53.040;8.850;2023-11-19T14:16:35;11.30;99.90
32334;DHT22;18810;53.040;8.850;2023-11-19T14:19:00;11.30;99.90
32334;DHT22;18810;53.040;8.850;2023-11-19T14:21:26;11.30;99.90
32334;DHT22;18810;53.040;8.850;2023-11-19T14:23:52;11.30;99.90
32334;DHT22;18810;53.040;8.850;2023-11-19T14:26:18;11.20;99.90
32334;DHT22;18810;53.040;8.850;2023-11-19T14:28:44;11.30;99.90
32334;DHT22;18810;53.040;8.850;2023-11-19T14:31:10;11.30;99.90
32334;DHT22;18810;53.040;8.850;2023-11-19T14:33:35;11.30;99.90
32334;DHT22;18810;53.040;8.850;2023-11-19T14:36:04;11.20;99.90
32334;DHT22;18810;53.040;8.850;2023-11-19T14:38:29;11.20;99.90
32334;DHT22;18810;53.040;8.850;2023-11-19T14:40:55;11.10;99.90
32334;DHT22;18810;53.040;8.850;2023-11-19T14:43:21;11.00;99.90
32334;DHT22;18810;53.040;8.850;2023-11-19T14:45:47;11.00;99.90
32334;DHT22;18810;53.040;8.850;2023-11-19T14:48:12;11.00;99.90
32334;DHT22;18810;53.040;8.850;2023-11-19T14:50:38;11.00;99.90
32334;DHT22;18810;53.040;8.850;2023-11-19T14:53:05;11.00;99.90
32334;DHT22;18810;53.040;8.850;2023-11-19T14:55:31;10.90;99.90
32334;DHT22;18810;53.040;8.850;2023-11-19T14:57:57;10.90;99.90
32334;DHT22;18810;53.040;8.850;2023-11-19T15:00:23;10.90;99.90
32334;DHT22;18810;53.040;8.850;2023-11-19T15:02:49;10.90;99.90
32334;DHT22;18810;53.040;8.850;2023-11-19T15:05:14;10.90;99.90
32334;DHT22;18810;53.040;8.850;2023-11-19T15:07:40;10.90;99.90
32334;DHT22;18810;53.040;8.850;2023-11-19T15:10:06;10.90;99.90
32334;DHT22;18810;53.040;8.850;2023-11-19T15:12:36;10.90;99.90
32334;DHT22;18810;53.040;8.850;2023-11-19T15:15:08;11.00;99.90
32334;DHT22;18810;53.040;8.850;2023-11-19T15:17:39;11.10;99.90
32334;DHT22;18810;53.040;8.850;2023-11-19T15:20:05;10.90;99.90
32334;DHT22;18810;53.040;8.850;2023-11-19T15:22:31;10.90;99.90
32334;DHT22;18810;53.040;8.850;2023-11-19T15:24:57;10.90;99.90
32334;DHT22;18810;53.040;8.850;2023-11-19T15:27:23;11.00;99.90
32334;DHT22;18810;53.040;8.850;2023-11-19T15:29:49;10.90;99.90
32334;DHT22;18810;53.040;8.850;2023-11-19T15:32:14;10.70;99.90
32334;DHT22;18810;53.040;8.850;2023-11-19T15:34:40;10.80;99.90
32334;DHT22;18810;53.040;8.850;2023-11-19T15:37:07;10.70;99.90
32334;DHT22;18810;53.040;8.850;2023-11-19T15:39:33;10.70;99.90
32334;DHT22;18810;53.040;8.850;2023-11-19T15:42:01;10.70;99.90
32334;DHT22;18810;53.040;8.850;2023-11-19T15:44:27;10.70;99.90
32334;DHT22;18810;53.040;8.850;2023-11-19T15:46:54;10.70;99.90
32334;DHT22;18810;53.040;8.850;2023-11-19T15:49:20;10.70;99.90
32334;DHT22;18810;53.040;8.850;2023-11-19T15:51:46;10.70;99.90
32334;DHT22;18810;53.040;8.850;2023-11-19T15:54:11;10.70;99.90
32334;DHT22;18810;53.040;8.850;2023-11-19T15:56:37;10.70;99.90
32334;DHT22;18810;53.040;8.850;2023-11-19T15:59:03;10.70;99.90
32334;DHT22;18810;53.040;8.850;2023-11-19T16:01:33;10.70;99.90
32334;DHT22;18810;53.040;8.850;2023-11-19T16:03:59;10.80;99.90